Time;durP1;ratioP1;P1;durP2;ratioP2;P2;SDS_P1;SDS_P2;PMS_P1;PMS_P2;Temp;Humidity;BMP_temperature;BMP_pressure;BME280_temperature;BME280_humidity;BME280_pressure;Samples;Min_cycle;Max_cycle;Signal;HPM_P1;HPM_P2
2023/01/21 00:02:10;;;;;;;60.50;21.55;;;-0.40;99.90;;;;;;5025076;28;20033;-67
2023/01/21 00:04:39;;;;;;;57.45;21.35;;;-0.40;99.90;;;;;;5028391;28;20037;-67
2023/01/21 00:07:06;;;;;;;51.92;18.95;;;-0.30;99.90;;;;;;5024057;28;20094;-66
2023/01/21 00:09:32;;;;;;;53.33;21.75;;;-0.30;99.90;;;;;;5020221;28;20132;-67
2023/01/21 00:11:57;;;;;;;58.83;21.25;;;-0.20;99.90;;;;;;5024853;28;20124;-67
2023/01/21 00:14:23;;;;;;;57.28;20.75;;;-0.20;99.90;;;;;;5028091;28;20041;-67
2023/01/21 00:16:49;;;;;;;62.80;22.70;;;-0.20;99.90;;;;;;5023708;28;20516;-67
2023/01/21 00:19:14;;;;;;;52.33;19.92;;;-0.20;99.90;;;;;;5024264;28;20107;-66
2023/01/21 00:21:40;;;;;;;58.00;21.02;;;-0.20;99.90;;;;;;5027162;28;20033;-66
2023/01/21 00:24:05;;;;;;;50.63;19.77;;;-0.30;99.90;;;;;;5027931;28;20520;-66
2023/01/21 00:26:31;;;;;;;58.45;21.67;;;-0.20;99.90;;;;;;5027198;28;20526;-67
2023/01/21 00:28:57;;;;;;;53.30;21.65;;;-0.30;99.90;;;;;;5019458;28;21286;-66
2023/01/21 00:31:22;;;;;;;51.92;19.02;;;-0.30;99.90;;;;;;5028376;28;20369;-66
2023/01/21 00:33:49;;;;;;;50.15;19.13;;;-0.20;99.90;;;;;;5023506;28;20799;-67
2023/01/21 00:36:17;;;;;;;45.55;17.90;;;-0.20;99.90;;;;;;5021348;28;20041;-67
2023/01/21 00:38:46;;;;;;;48.40;19.95;;;-0.20;99.90;;;;;;5015055;28;20413;-66
2023/01/21 00:41:12;;;;;;;51.20;19.02;;;-0.20;99.90;;;;;;5022672;28;20072;-67
2023/01/21 00:43:39;;;;;;;50.15;19.73;;;-0.20;99.90;;;;;;5022853;28;20061;-67
2023/01/21 00:46:05;;;;;;;45.55;18.75;;;-0.20;99.90;;;;;;5025461;28;20038;-67
2023/01/21 00:48:31;;;;;;;45.70;18.27;;;-0.20;99.90;;;;;;5029043;28;20034;-67
2023/01/21 00:51:00;;;;;;;44.78;17.77;;;-0.20;99.90;;;;;;5025078;28;20738;-67
2023/01/21 00:53:31;;;;;;;48.37;17.37;;;-0.20;99.90;;;;;;5027781;28;20075;-67
2023/01/21 00:56:05;;;;;;;49.30;19.58;;;-0.20;99.90;;;;;;5029357;28;20036;-66
2023/01/21 00:58:31;;;;;;;46.22;18.73;;;-0.20;99.90;;;;;;5017978;28;20037;-66
2023/01/21 01:01:07;;;;;;;43.22;19.58;;;-0.30;99.90;;;;;;5016554;28;20044;-67
2023/01/21 01:03:33;;;;;;;50.53;19.38;;;-0.20;99.90;;;;;;5018916;28;20141;-66
2023/01/21 01:06:05;;;;;;;47.22;18.35;;;-0.20;99.90;;;;;;5028096;28;20468;-67
2023/01/21 01:08:31;;;;;;;50.80;18.38;;;-0.20;99.90;;;;;;5014882;28;20041;-67
2023/01/21 01:10:57;;;;;;;49.08;18.38;;;-0.20;99.90;;;;;;5020966;28;20034;-66
2023/01/21 01:13:23;;;;;;;51.28;18.90;;;-0.20;99.90;;;;;;5022855;28;20433;-66
2023/01/21 01:15:51;;;;;;;45.80;18.42;;;-0.20;99.90;;;;;;5023987;28;20041;-67
2023/01/21 01:18:17;;;;;;;53.20;19.67;;;-0.10;99.90;;;;;;5022041;28;20041;-66
2023/01/21 01:20:43;;;;;;;53.17;18.95;;;-0.10;99.90;;;;;;5015968;28;20037;-66
2023/01/21 01:23:09;;;;;;;51.45;17.98;;;-0.10;99.90;;;;;;5021568;28;20485;-66
2023/01/21 01:25:36;;;;;;;46.65;17.10;;;-0.10;99.90;;;;;;5023966;28;20095;-67
2023/01/21 01:28:03;;;;;;;40.03;15.85;;;-0.10;99.90;;;;;;5027410;28;20076;-67
2023/01/21 01:30:28;;;;;;;44.58;17.27;;;-0.10;99.90;;;;;;5022888;28;20041;-67
2023/01/21 01:32:54;;;;;;;43.15;16.67;;;-0.10;99.90;;;;;;5026277;28;20507;-67
2023/01/21 01:35:20;;;;;;;47.25;16.13;;;-0.10;99.90;;;;;;5023516;28;20041;-67
2023/01/21 01:37:45;;;;;;;44.65;17.58;;;-0.10;99.90;;;;;;5017120;28;20563;-67
2023/01/21 01:40:11;;;;;;;48.50;17.77;;;-0.10;99.90;;;;;;5018414;28;20052;-66
2023/01/21 01:42:37;;;;;;;50.88;18.92;;;-0.10;99.90;;;;;;5024410;28;20055;-67
2023/01/21 01:45:05;;;;;;;43.45;16.67;;;-0.10;99.90;;;;;;5018941;28;20033;-66
2023/01/21 01:47:38;;;;;;;51.88;18.27;;;-0.10;99.90;;;;;;5024109;28;20136;-67
2023/01/21 01:50:08;;;;;;;52.08;16.80;;;-0.10;99.90;;;;;;5021645;28;20527;-66
2023/01/21 01:52:34;;;;;;;56.33;18.08;;;-0.20;99.90;;;;;;5025216;28;20065;-67
2023/01/21 01:55:02;;;;;;;55.17;19.30;;;-0.20;99.90;;;;;;5024210;28;20091;-67
2023/01/21 01:57:35;;;;;;;50.88;19.17;;;-0.30;99.90;;;;;;5019943;28;20045;-67
2023/01/21 02:00:04;;;;;;;54.15;18.95;;;-0.30;99.90;;;;;;5023984;28;20125;-66
2023/01/21 02:02:30;;;;;;;57.60;20.25;;;-0.30;99.90;;;;;;5020369;28;20128;-66
2023/01/21 02:05:01;;;;;;;58.25;20.50;;;-0.40;99.90;;;;;;5016240;28;20033;-66
2023/01/21 02:07:31;;;;;;;54.65;19.00;;;-0.40;99.90;;;;;;5021653;28;22131;-66
2023/01/21 02:09:58;;;;;;;52.65;19.27;;;-0.30;99.90;;;;;;5016870;28;20512;-66
2023/01/21 02:12:24;;;;;;;60.58;20.15;;;-0.30;99.90;;;;;;5020295;28;20051;-66
2023/01/21 02:14:50;;;;;;;57.00;18.85;;;-0.30;99.90;;;;;;5022224;28;20041;-66
2023/01/21 02:17:39;;;;;;;57.55;19.35;;;-0.30;99.90;;;;;;5023837;28;20099;-67
2023/01/21 02:20:23;;;;;;;59.08;19.85;;;-0.30;99.90;;;;;;5016593;28;20033;-66
2023/01/21 02:23:09;;;;;;;61.10;18.50;;;-0.30;99.90;;;;;;4998282;28;20102;-66
2023/01/21 02:25:43;;;;;;;57.65;19.42;;;-0.30;99.90;;;;;;5026073;28;20112;-66
2023/01/21 02:28:41;;;;;;;51.00;17.42;;;-0.30;99.90;;;;;;5015787;28;20041;-66
2023/01/21 02:31:26;;;;;;;54.17;18.08;;;-0.30;99.90;;;;;;5019723;28;20055;-66
2023/01/21 02:34:14;;;;;;;56.63;18.83;;;-0.30;99.90;;;;;;5021274;28;20118;-66
2023/01/21 02:36:58;;;;;;;49.45;17.60;;;-0.30;99.90;;;;;;5013045;28;20039;-67
2023/01/21 02:39:35;;;;;;;52.13;18.35;;;-0.30;99.90;;;;;;5020393;28;20127;-66
2023/01/21 02:42:19;;;;;;;58.55;20.08;;;-0.30;99.90;;;;;;5017644;28;20060;-66
2023/01/21 02:44:58;;;;;;;62.22;19.92;;;-0.30;99.90;;;;;;5022733;28;20037;-67
2023/01/21 02:47:39;;;;;;;54.27;18.80;;;-0.30;99.90;;;;;;5025866;28;20514;-66
2023/01/21 02:50:16;;;;;;;57.28;19.88;;;-0.30;99.90;;;;;;5026140;28;20037;-67
2023/01/21 02:52:42;;;;;;;64.57;21.25;;;-0.20;99.90;;;;;;5016767;28;20642;-66
2023/01/21 02:55:14;;;;;;;58.80;18.98;;;-0.20;99.90;;;;;;5019341;28;20049;-66
2023/01/21 02:57:52;;;;;;;59.90;21.05;;;-0.20;99.90;;;;;;5026027;28;20048;-66
2023/01/21 03:00:23;;;;;;;63.78;20.35;;;-0.20;99.90;;;;;;5021609;28;20421;-66
2023/01/21 03:03:18;;;;;;;57.70;20.33;;;-0.20;99.90;;;;;;5024190;28;20179;-66
2023/01/21 03:05:49;;;;;;;57.63;18.70;;;-0.20;99.90;;;;;;5021384;28;20072;-66
2023/01/21 03:08:15;;;;;;;53.42;18.92;;;-0.20;99.90;;;;;;5017195;28;20680;-66
2023/01/21 03:11:13;;;;;;;50.90;19.73;;;-0.10;99.90;;;;;;5026844;28;20053;-66
2023/01/21 03:19:35;;;;;;;55.55;17.25;;;-0.10;99.90;;;;;;5025696;28;20041;-66
2023/01/21 03:22:07;;;;;;;54.33;17.70;;;-0.10;99.90;;;;;;5026538;28;20078;-66
2023/01/21 03:24:34;;;;;;;51.47;17.70;;;-0.10;99.90;;;;;;5024078;28;20190;-66
2023/01/21 03:27:02;;;;;;;48.88;18.08;;;-0.10;99.90;;;;;;5028820;28;20057;-66
2023/01/21 03:29:30;;;;;;;49.95;18.25;;;-0.10;99.90;;;;;;5017175;28;20045;-66
2023/01/21 03:32:03;;;;;;;48.53;17.25;;;-0.10;99.90;;;;;;5026808;28;20075;-66
2023/01/21 03:34:33;;;;;;;49.03;18.15;;;-0.20;99.90;;;;;;5024975;28;20059;-66
2023/01/21 03:37:05;;;;;;;43.63;16.50;;;-0.20;99.90;;;;;;5023017;28;20041;-66
2023/01/21 03:40:06;;;;;;;51.03;18.55;;;-0.20;99.90;;;;;;5023981;28;20044;-67
2023/01/21 03:42:32;;;;;;;50.33;17.42;;;-0.20;99.90;;;;;;5022000;28;20436;-66
2023/01/21 03:44:58;;;;;;;48.85;17.35;;;-0.40;99.90;;;;;;5004065;28;20121;-66
2023/01/21 03:47:33;;;;;;;53.70;19.10;;;-0.40;99.90;;;;;;5024898;28;20120;-66
2023/01/21 03:50:24;;;;;;;47.20;17.45;;;-0.50;99.90;;;;;;5027110;28;20073;-66
2023/01/21 03:52:50;;;;;;;55.63;18.63;;;-0.60;99.90;;;;;;5025445;28;20042;-66
2023/01/21 03:55:16;;;;;;;50.67;18.95;;;-0.60;99.90;;;;;;5023801;28;20086;-66
2023/01/21 03:57:42;;;;;;;44.50;16.85;;;-0.60;99.90;;;;;;5022814;28;20084;-66
2023/01/21 04:00:08;;;;;;;53.72;18.33;;;-0.60;99.90;;;;;;5026093;28;20033;-66
2023/01/21 04:02:34;;;;;;;48.42;17.65;;;-0.60;99.90;;;;;;5019909;28;20040;-66
2023/01/21 04:05:00;;;;;;;45.92;16.55;;;-0.60;99.90;;;;;;5018010;28;20041;-66
2023/01/21 04:07:25;;;;;;;43.90;17.60;;;-0.70;99.90;;;;;;5024461;28;20049;-66
2023/01/21 04:09:51;;;;;;;52.08;17.73;;;-0.70;99.90;;;;;;5022921;28;20057;-66
2023/01/21 04:12:17;;;;;;;43.78;17.63;;;-0.70;99.90;;;;;;5024788;28;20225;-66
2023/01/21 04:14:43;;;;;;;44.25;16.35;;;-0.80;99.90;;;;;;5021125;28;20042;-66
2023/01/21 04:17:08;;;;;;;48.33;17.60;;;-0.80;99.90;;;;;;5027033;28;20424;-66
2023/01/21 04:19:34;;;;;;;48.67;17.25;;;-0.90;99.90;;;;;;5022658;28;20077;-66
2023/01/21 04:22:00;;;;;;;46.17;17.35;;;-0.90;99.90;;;;;;5022252;28;20042;-66
2023/01/21 04:24:25;;;;;;;48.88;17.42;;;-1.00;99.90;;;;;;5027177;28;20112;-66
2023/01/21 04:26:52;;;;;;;45.00;17.13;;;-1.00;99.90;;;;;;5023734;28;20045;-65
2023/01/21 04:29:18;;;;;;;50.25;17.98;;;-1.10;99.90;;;;;;5022571;28;20076;-66
2023/01/21 04:31:43;;;;;;;49.47;17.52;;;-1.10;99.90;;;;;;5025027;28;20034;-66
2023/01/21 04:34:09;;;;;;;47.08;16.48;;;-1.10;99.90;;;;;;5024790;28;20044;-66
2023/01/21 04:36:35;;;;;;;46.95;17.17;;;-1.00;99.90;;;;;;5022270;28;20550;-66
2023/01/21 04:39:01;;;;;;;45.80;16.45;;;-1.00;99.90;;;;;;5021040;28;20124;-66
2023/01/21 04:41:26;;;;;;;46.92;17.92;;;-1.00;99.90;;;;;;5026115;28;20038;-66
2023/01/21 04:43:52;;;;;;;50.80;17.65;;;-0.90;99.90;;;;;;5023194;28;20046;-66
2023/01/21 04:46:17;;;;;;;53.33;18.15;;;-0.90;99.90;;;;;;5026421;28;20501;-66
2023/01/21 04:48:43;;;;;;;51.85;18.77;;;-0.80;99.90;;;;;;5027618;28;20489;-66
2023/01/21 04:51:08;;;;;;;45.85;17.25;;;-0.70;99.90;;;;;;5023610;28;20037;-66
2023/01/21 04:53:34;;;;;;;46.15;16.30;;;-0.70;99.90;;;;;;5026165;28;20030;-66
2023/01/21 04:55:59;;;;;;;44.78;16.85;;;-0.60;99.90;;;;;;5024790;28;20037;-66
2023/01/21 04:58:26;;;;;;;47.95;17.30;;;-0.60;99.90;;;;;;5024731;28;20392;-66
2023/01/21 05:00:53;;;;;;;47.15;17.67;;;-0.50;99.90;;;;;;5017209;28;20038;-66
2023/01/21 05:03:19;;;;;;;44.60;16.45;;;-0.50;99.90;;;;;;5027624;28;20056;-66
2023/01/21 05:05:44;;;;;;;48.28;17.60;;;-0.40;99.90;;;;;;5023396;28;20559;-66
2023/01/21 05:08:10;;;;;;;46.67;16.70;;;-0.40;99.90;;;;;;5021613;28;20384;-66
2023/01/21 05:10:35;;;;;;;47.88;16.88;;;-0.30;99.90;;;;;;5021860;28;20107;-66
2023/01/21 05:13:01;;;;;;;42.10;16.75;;;-0.30;99.90;;;;;;5023029;28;20092;-66
2023/01/21 05:15:27;;;;;;;47.63;17.42;;;-0.30;99.90;;;;;;5021098;28;20053;-66
2023/01/21 05:17:52;;;;;;;49.20;17.40;;;-0.30;99.90;;;;;;5026410;28;20505;-66
2023/01/21 05:20:18;;;;;;;50.78;17.38;;;-0.30;99.90;;;;;;5022725;28;20510;-66
2023/01/21 05:22:47;;;;;;;42.17;15.77;;;-0.30;99.90;;;;;;5023930;28;20029;-66
2023/01/21 05:25:14;;;;;;;50.03;17.27;;;-0.30;99.90;;;;;;5026062;28;20033;-66
2023/01/21 05:27:40;;;;;;;45.67;17.45;;;-0.30;99.90;;;;;;5015705;28;20560;-66
2023/01/21 05:30:06;;;;;;;47.90;18.35;;;-0.30;99.90;;;;;;5025443;28;20052;-66
2023/01/21 05:32:32;;;;;;;50.55;18.10;;;-0.20;99.90;;;;;;5021574;28;20042;-66
2023/01/21 05:34:57;;;;;;;50.60;17.58;;;-0.20;99.90;;;;;;5022437;28;20049;-66
2023/01/21 05:37:23;;;;;;;48.28;15.77;;;-0.20;99.90;;;;;;5018985;28;20034;-66
2023/01/21 05:39:48;;;;;;;49.50;17.55;;;-0.10;99.90;;;;;;5017823;28;21370;-66
2023/01/21 05:42:14;;;;;;;50.85;16.90;;;-0.10;99.90;;;;;;5015674;28;20107;-66
2023/01/21 05:44:40;;;;;;;46.80;16.67;;;-0.20;99.90;;;;;;5020266;28;20136;-66
2023/01/21 05:47:07;;;;;;;47.45;18.25;;;-0.20;99.90;;;;;;5022333;28;20041;-66
2023/01/21 05:49:33;;;;;;;48.40;17.65;;;-0.10;99.90;;;;;;5018187;28;20123;-66
2023/01/21 05:51:59;;;;;;;44.92;17.20;;;-0.10;99.90;;;;;;5010409;28;20064;-66
2023/01/21 05:54:24;;;;;;;49.97;17.10;;;-0.10;99.90;;;;;;5027471;28;20049;-66
2023/01/21 05:56:50;;;;;;;45.72;16.52;;;-0.10;99.90;;;;;;5022655;28;20073;-66
2023/01/21 05:59:15;;;;;;;47.53;17.20;;;0.00;99.90;;;;;;5018853;28;20065;-66
2023/01/21 06:01:41;;;;;;;47.72;16.95;;;0.00;99.90;;;;;;5025040;28;20448;-66
2023/01/21 06:04:06;;;;;;;47.40;17.02;;;0.00;99.90;;;;;;5022428;28;20473;-66
2023/01/21 06:06:32;;;;;;;42.13;16.73;;;0.00;99.90;;;;;;5023630;28;20038;-66
2023/01/21 06:08:57;;;;;;;48.53;17.98;;;0.00;99.90;;;;;;5015262;28;20099;-66
2023/01/21 06:11:23;;;;;;;43.97;15.93;;;0.00;99.90;;;;;;5021174;28;20045;-66
2023/01/21 06:13:49;;;;;;;43.97;16.60;;;0.00;99.90;;;;;;5017804;28;20064;-66
2023/01/21 06:16:14;;;;;;;44.47;17.20;;;0.00;99.90;;;;;;5017112;28;20041;-66
2023/01/21 06:18:40;;;;;;;48.40;17.33;;;0.00;99.90;;;;;;5020849;28;20041;-66
2023/01/21 06:21:05;;;;;;;44.85;17.33;;;0.00;99.90;;;;;;5023789;28;20034;-66
2023/01/21 06:23:31;;;;;;;46.05;17.42;;;0.00;99.90;;;;;;5018576;28;20060;-66
2023/01/21 06:26:00;;;;;;;46.22;15.90;;;0.00;99.90;;;;;;5022672;28;20048;-66
2023/01/21 06:28:26;;;;;;;49.13;17.10;;;0.00;99.90;;;;;;5021758;28;20029;-66
2023/01/21 06:30:52;;;;;;;52.70;17.17;;;0.10;99.90;;;;;;5023267;28;20490;-66
2023/01/21 06:33:17;;;;;;;54.35;17.98;;;0.10;99.90;;;;;;5018395;28;20332;-66
2023/01/21 06:35:43;;;;;;;50.05;17.85;;;0.10;99.90;;;;;;5028236;28;20041;-66
2023/01/21 06:38:08;;;;;;;44.55;15.55;;;0.10;99.90;;;;;;5022805;28;20041;-66
2023/01/21 06:40:34;;;;;;;46.70;16.50;;;0.20;99.90;;;;;;5023675;28;20099;-66
2023/01/21 06:42:59;;;;;;;47.35;16.70;;;0.20;99.90;;;;;;5025595;28;20143;-66
2023/01/21 06:45:25;;;;;;;41.53;16.95;;;0.20;99.90;;;;;;5022314;28;20068;-66
2023/01/21 06:47:51;;;;;;;51.03;16.45;;;0.20;99.90;;;;;;5024429;28;20539;-66
2023/01/21 06:50:17;;;;;;;44.17;17.08;;;0.20;99.90;;;;;;5015352;28;20037;-66
2023/01/21 06:52:47;;;;;;;48.92;17.95;;;0.10;99.90;;;;;;5018896;28;20429;-66
2023/01/21 06:55:13;;;;;;;46.67;17.85;;;0.20;99.90;;;;;;5022381;28;20050;-66
2023/01/21 06:57:39;;;;;;;49.97;17.70;;;0.10;99.90;;;;;;5017338;28;20038;-66
2023/01/21 07:00:06;;;;;;;49.47;17.52;;;0.10;99.90;;;;;;5013591;28;20116;-66
2023/01/21 07:02:32;;;;;;;48.67;17.40;;;0.20;99.90;;;;;;5011720;28;20041;-66
2023/01/21 07:04:57;;;;;;;47.70;17.33;;;0.10;99.90;;;;;;5016375;28;20059;-66
2023/01/21 07:07:23;;;;;;;44.13;16.02;;;0.20;99.90;;;;;;5021554;28;20041;-66
2023/01/21 07:09:48;;;;;;;50.22;18.20;;;0.20;99.90;;;;;;5017767;28;20049;-66
2023/01/21 07:12:14;;;;;;;52.53;18.05;;;0.20;99.90;;;;;;5024074;28;20564;-66
2023/01/21 07:14:39;;;;;;;49.83;17.27;;;0.20;99.90;;;;;;5025963;28;20049;-66
2023/01/21 07:17:05;;;;;;;51.70;16.88;;;0.20;99.90;;;;;;5017564;28;20056;-66
2023/01/21 07:19:31;;;;;;;60.20;18.42;;;0.20;99.90;;;;;;5022092;28;20150;-66
2023/01/21 07:21:56;;;;;;;52.42;17.73;;;0.20;99.90;;;;;;5020943;28;20033;-66
2023/01/21 07:24:22;;;;;;;51.42;17.08;;;0.20;99.90;;;;;;5017210;28;20038;-66
2023/01/21 07:26:47;;;;;;;51.78;18.95;;;0.30;99.90;;;;;;5014892;28;20482;-66
2023/01/21 07:29:13;;;;;;;50.95;18.48;;;0.20;99.90;;;;;;5021966;28;20038;-66
2023/01/21 07:31:39;;;;;;;51.88;19.90;;;0.20;99.90;;;;;;5025947;28;20124;-66
2023/01/21 07:34:05;;;;;;;52.22;19.10;;;0.20;99.90;;;;;;5022402;28;20495;-65
2023/01/21 07:36:31;;;;;;;57.38;19.83;;;0.20;99.90;;;;;;5019746;28;20034;-66
2023/01/21 07:38:56;;;;;;;51.80;17.52;;;0.20;99.90;;;;;;5012275;28;20091;-66
2023/01/21 07:41:22;;;;;;;50.45;18.00;;;0.20;99.90;;;;;;5017563;28;20037;-66
2023/01/21 07:43:49;;;;;;;49.70;18.38;;;0.20;99.90;;;;;;5018884;28;20109;-66
2023/01/21 07:46:19;;;;;;;55.50;19.42;;;0.20;99.90;;;;;;5022192;28;20042;-66
2023/01/21 07:48:47;;;;;;;54.53;19.75;;;0.30;99.90;;;;;;5024929;28;20037;-66
2023/01/21 07:51:13;;;;;;;53.65;19.55;;;0.20;99.90;;;;;;5020913;28;20065;-66
2023/01/21 07:53:38;;;;;;;57.40;19.50;;;0.30;99.90;;;;;;5017602;28;20061;-66
2023/01/21 07:56:05;;;;;;;61.85;19.88;;;0.30;99.90;;;;;;5020964;28;20033;-67
2023/01/21 07:58:31;;;;;;;55.60;19.65;;;0.30;99.90;;;;;;5026351;28;20056;-66
2023/01/21 08:00:57;;;;;;;61.47;20.25;;;0.30;99.90;;;;;;5024461;28;20046;-66
2023/01/21 08:03:23;;;;;;;63.17;21.05;;;0.40;99.90;;;;;;5029358;28;20366;-66
2023/01/21 08:05:50;;;;;;;59.90;19.63;;;0.40;99.90;;;;;;5030875;28;20072;-66
2023/01/21 08:08:17;;;;;;;55.03;19.40;;;0.40;99.90;;;;;;5026643;28;20625;-66
2023/01/21 08:10:42;;;;;;;57.92;19.05;;;0.30;99.90;;;;;;5029645;28;20625;-66
2023/01/21 08:13:08;;;;;;;56.33;21.05;;;0.40;99.90;;;;;;5030461;28;20041;-66
2023/01/21 08:15:34;;;;;;;61.72;20.92;;;0.40;99.90;;;;;;5028753;28;20041;-66
2023/01/21 08:17:59;;;;;;;52.70;19.23;;;0.40;99.90;;;;;;5030966;28;20049;-66
2023/01/21 08:20:25;;;;;;;57.83;19.65;;;0.40;99.90;;;;;;5022223;28;20080;-66
2023/01/21 08:22:50;;;;;;;57.00;18.90;;;0.40;99.90;;;;;;5029537;28;20041;-66
2023/01/21 08:25:16;;;;;;;57.67;20.27;;;0.40;99.90;;;;;;5030205;28;20044;-66
2023/01/21 08:27:41;;;;;;;53.03;20.17;;;0.40;99.90;;;;;;5028933;28;20076;-66
2023/01/21 08:30:08;;;;;;;52.97;20.08;;;0.40;99.90;;;;;;5024689;28;20052;-66
2023/01/21 08:32:33;;;;;;;53.65;19.38;;;0.40;99.90;;;;;;5017712;28;20048;-65
2023/01/21 08:34:59;;;;;;;56.65;19.60;;;0.40;99.90;;;;;;5027889;28;20041;-66
2023/01/21 08:37:24;;;;;;;52.25;19.23;;;0.40;99.90;;;;;;5022232;28;20147;-66
2023/01/21 08:39:50;;;;;;;60.08;19.15;;;0.50;99.90;;;;;;5007730;28;20037;-66
2023/01/21 08:42:16;;;;;;;55.15;19.92;;;0.50;99.90;;;;;;5026924;28;20033;-65
2023/01/21 08:44:41;;;;;;;53.90;18.92;;;0.50;99.90;;;;;;5026180;28;20492;-66
2023/01/21 08:47:07;;;;;;;55.42;19.48;;;0.60;99.90;;;;;;5031808;28;20041;-66
2023/01/21 08:49:32;;;;;;;53.08;19.35;;;0.60;99.90;;;;;;5029784;28;20666;-66
2023/01/21 08:51:58;;;;;;;60.45;20.00;;;0.60;99.90;;;;;;5013993;28;20045;-66
2023/01/21 08:54:24;;;;;;;53.03;19.85;;;0.70;99.90;;;;;;5026786;28;20037;-66
2023/01/21 08:56:49;;;;;;;50.90;19.27;;;0.70;99.90;;;;;;5021515;28;20061;-66
2023/01/21 08:59:15;;;;;;;58.17;19.85;;;0.80;99.90;;;;;;5028924;28;20041;-66
2023/01/21 09:01:42;;;;;;;56.45;19.90;;;0.80;99.90;;;;;;5024932;28;20140;-66
2023/01/21 09:04:08;;;;;;;56.28;21.13;;;0.80;99.90;;;;;;5028403;28;20045;-66
2023/01/21 09:06:33;;;;;;;51.85;20.75;;;0.80;99.90;;;;;;5033009;28;20495;-66
2023/01/21 09:08:59;;;;;;;44.03;18.80;;;0.80;99.90;;;;;;5027687;28;20049;-66
2023/01/21 09:11:26;;;;;;;50.50;19.27;;;0.80;99.90;;;;;;5010848;28;20053;-66
2023/01/21 09:13:51;;;;;;;50.75;19.02;;;0.70;99.90;;;;;;5029881;28;20571;-66
2023/01/21 09:16:21;;;;;;;53.50;19.20;;;0.70;99.90;;;;;;5020107;28;20046;-66
2023/01/21 09:18:47;;;;;;;48.50;18.90;;;0.80;99.90;;;;;;5032233;28;20037;-66
2023/01/21 09:21:14;;;;;;;49.67;17.50;;;0.80;99.90;;;;;;5024701;28;20435;-66
2023/01/21 09:23:40;;;;;;;47.17;18.67;;;0.80;99.90;;;;;;5025394;28;20047;-65
2023/01/21 09:26:14;;;;;;;51.15;18.85;;;0.90;99.90;;;;;;5028097;28;20124;-65
2023/01/21 09:28:43;;;;;;;47.88;17.73;;;1.00;99.90;;;;;;5027415;28;20034;-65
2023/01/21 09:31:14;;;;;;;51.95;20.05;;;1.00;99.90;;;;;;5029015;28;20053;-66
2023/01/21 09:33:43;;;;;;;51.40;19.30;;;1.00;99.90;;;;;;5031712;28;20447;-66
2023/01/21 09:36:13;;;;;;;46.80;19.50;;;1.10;99.90;;;;;;5029275;28;20083;-66
2023/01/21 09:38:41;;;;;;;51.70;20.50;;;1.20;99.90;;;;;;5020180;28;20544;-66
2023/01/21 09:41:19;;;;;;;40.83;17.52;;;1.20;99.90;;;;;;5022180;28;20052;-66
2023/01/21 09:43:57;;;;;;;49.33;19.38;;;1.20;99.90;;;;;;5030781;28;20041;-66
2023/01/21 09:46:38;;;;;;;53.05;19.65;;;1.20;99.90;;;;;;5026084;28;20041;-66
2023/01/21 09:49:08;;;;;;;54.17;19.85;;;1.30;99.90;;;;;;5031583;28;20389;-66
2023/01/21 09:51:41;;;;;;;49.65;19.83;;;1.30;99.90;;;;;;5027501;28;20052;-66
2023/01/21 09:54:16;;;;;;;48.10;20.42;;;1.40;99.90;;;;;;5028862;28;20400;-66
2023/01/21 09:56:55;;;;;;;48.95;19.88;;;1.40;99.90;;;;;;5027470;28;20507;-66
2023/01/21 09:59:32;;;;;;;48.33;19.02;;;1.40;99.90;;;;;;5030279;28;20041;-65
2023/01/21 10:02:00;;;;;;;49.03;20.60;;;1.50;99.90;;;;;;5026030;28;20480;-65
2023/01/21 10:04:44;;;;;;;45.00;18.85;;;1.50;99.90;;;;;;5029634;28;20047;-65
2023/01/21 10:07:37;;;;;;;46.33;20.83;;;1.60;99.90;;;;;;5010753;28;20180;-66
2023/01/21 10:10:13;;;;;;;48.38;19.83;;;1.60;99.90;;;;;;5012296;28;20053;-66
2023/01/21 10:12:56;;;;;;;44.92;19.58;;;1.60;99.90;;;;;;5029637;28;20052;-66
2023/01/21 10:15:45;;;;;;;48.40;20.48;;;1.70;99.90;;;;;;5026660;28;20044;-65
2023/01/21 10:18:23;;;;;;;51.15;20.55;;;1.70;99.90;;;;;;5030693;28;20073;-65
2023/01/21 10:21:02;;;;;;;44.53;20.40;;;1.70;99.90;;;;;;5029286;28;20057;-66
2023/01/21 10:23:33;;;;;;;45.97;20.80;;;1.70;99.90;;;;;;5028409;28;20432;-66
2023/01/21 10:26:05;;;;;;;42.60;19.58;;;1.80;99.90;;;;;;5028733;28;20045;-66
2023/01/21 10:28:31;;;;;;;47.97;21.42;;;1.90;99.90;;;;;;5031118;28;20095;-66
2023/01/21 10:31:05;;;;;;;51.83;21.58;;;1.90;99.90;;;;;;5027308;28;20045;-64
2023/01/21 10:33:32;;;;;;;48.70;21.20;;;2.00;99.90;;;;;;5028854;28;20412;-65
2023/01/21 10:35:58;;;;;;;47.85;20.77;;;2.10;99.90;;;;;;5026394;28;20042;-65
2023/01/21 10:38:40;;;;;;;47.38;20.40;;;2.10;99.90;;;;;;5021927;28;20086;-66
2023/01/21 10:41:29;;;;;;;48.95;21.65;;;2.10;99.90;;;;;;5022427;28;20560;-66
2023/01/21 10:44:19;;;;;;;49.17;22.00;;;2.00;99.90;;;;;;5028681;28;20037;-66
2023/01/21 10:47:04;;;;;;;47.30;20.88;;;1.90;99.90;;;;;;5022762;28;20041;-66
2023/01/21 10:49:52;;;;;;;51.80;20.92;;;1.80;99.90;;;;;;5027260;28;20041;-65
2023/01/21 10:52:53;;;;;;;45.63;20.23;;;1.80;99.90;;;;;;5024107;28;20061;-65
2023/01/21 10:55:39;;;;;;;49.40;21.25;;;1.70;99.90;;;;;;4996562;28;20141;-66
2023/01/21 10:58:24;;;;;;;50.60;21.02;;;1.80;99.90;;;;;;5023684;28;20136;-65
2023/01/21 11:00:52;;;;;;;46.38;21.48;;;1.90;99.90;;;;;;5026315;28;20413;-66
2023/01/21 11:03:40;;;;;;;51.38;20.88;;;1.80;99.90;;;;;;5024635;28;20045;-65
2023/01/21 11:06:10;;;;;;;46.05;20.60;;;1.90;99.90;;;;;;5014242;28;20537;-65
2023/01/21 11:08:37;;;;;;;55.10;21.48;;;2.00;99.90;;;;;;5024921;28;20080;-66
2023/01/21 11:11:05;;;;;;;47.58;21.92;;;2.10;99.90;;;;;;5017576;28;20053;-66
2023/01/21 11:13:30;;;;;;;50.55;21.15;;;2.20;99.90;;;;;;5023089;28;20443;-66
2023/01/21 11:15:58;;;;;;;48.72;21.70;;;2.40;99.90;;;;;;5024128;28;20046;-66
2023/01/21 11:18:32;;;;;;;51.88;21.20;;;2.60;99.90;;;;;;5023224;28;20052;-66
2023/01/21 11:21:18;;;;;;;46.05;20.52;;;2.70;99.90;;;;;;5007946;28;20448;-66
2023/01/21 11:23:59;;;;;;;48.85;20.67;;;2.70;99.90;;;;;;5018374;28;20037;-66
2023/01/21 11:26:28;;;;;;;50.38;22.27;;;2.70;99.90;;;;;;5021204;28;20488;-65
2023/01/21 11:29:14;;;;;;;46.25;20.77;;;2.80;99.90;;;;;;5028188;28;20116;-66
2023/01/21 11:31:47;;;;;;;43.20;20.00;;;2.90;99.90;;;;;;5017912;28;20041;-66
2023/01/21 11:34:18;;;;;;;46.90;21.02;;;2.90;99.90;;;;;;5031486;28;20136;-66
2023/01/21 11:37:02;;;;;;;40.90;20.77;;;3.10;99.90;;;;;;5026715;28;20046;-66
2023/01/21 11:39:45;;;;;;;46.22;20.85;;;3.10;99.90;;;;;;5024780;28;20460;-66
2023/01/21 11:42:15;;;;;;;44.88;20.67;;;3.20;99.90;;;;;;5029432;28;20041;-66
2023/01/21 11:44:50;;;;;;;44.83;20.33;;;3.30;99.90;;;;;;5028689;28;20040;-66
2023/01/21 11:47:38;;;;;;;44.03;20.42;;;3.40;99.90;;;;;;5031681;28;20119;-66
2023/01/21 11:50:12;;;;;;;41.97;19.38;;;3.40;99.90;;;;;;5029390;28;20451;-67
2023/01/21 11:52:38;;;;;;;40.72;18.98;;;3.40;99.90;;;;;;5030884;28;20179;-66
2023/01/21 11:55:17;;;;;;;43.20;20.05;;;3.40;99.90;;;;;;5030665;28;20132;-67
2023/01/21 11:57:47;;;;;;;40.88;20.42;;;3.40;99.90;;;;;;5032095;28;20042;-66
2023/01/21 12:00:17;;;;;;;;;;;3.40;99.90;;;;;;5026096;28;20041;-67
2023/01/21 12:02:49;;;;;;;40.38;19.65;;;3.40;99.90;;;;;;5029564;28;19917;-67
2023/01/21 12:05:25;;;;;;;41.28;18.50;;;3.50;99.90;;;;;;5026564;28;20049;-66
2023/01/21 12:07:51;;;;;;;38.15;17.55;;;3.50;99.90;;;;;;5025382;28;20425;-66
2023/01/21 12:10:35;;;;;;;37.92;18.58;;;3.60;99.90;;;;;;5018269;28;20046;-66
2023/01/21 12:13:36;;;;;;;35.95;18.02;;;3.50;99.90;;;;;;5028043;28;20038;-67
2023/01/21 12:16:25;;;;;;;38.30;18.33;;;3.60;99.90;;;;;;5023468;28;20069;-66
2023/01/21 12:19:04;;;;;;;39.28;17.65;;;3.60;99.90;;;;;;5028024;28;20047;-66
2023/01/21 12:21:55;;;;;;;37.67;18.55;;;3.70;99.90;;;;;;5027630;28;20481;-66
2023/01/21 12:24:27;;;;;;;38.33;17.45;;;3.60;99.90;;;;;;5030881;28;20045;-66
2023/01/21 12:27:19;;;;;;;37.85;18.52;;;3.60;99.90;;;;;;5030820;28;20127;-66
2023/01/21 12:29:53;;;;;;;35.33;16.60;;;3.50;99.90;;;;;;5010241;28;20106;-66
2023/01/21 12:32:28;;;;;;;36.80;16.23;;;3.40;99.90;;;;;;5008986;28;20046;-66
2023/01/21 12:35:03;;;;;;;37.30;16.27;;;3.40;99.90;;;;;;5020946;28;20484;-66
2023/01/21 12:37:34;;;;;;;38.20;16.65;;;3.30;99.90;;;;;;5028014;28;20127;-66
2023/01/21 12:40:12;;;;;;;37.78;18.38;;;3.30;99.90;;;;;;5031347;28;20112;-66
2023/01/21 12:42:44;;;;;;;33.38;16.90;;;3.30;99.90;;;;;;5012165;28;20064;-65
2023/01/21 12:45:14;;;;;;;34.20;15.70;;;3.30;99.90;;;;;;5020038;28;20103;-66
2023/01/21 12:47:52;;;;;;;30.63;14.98;;;3.40;99.90;;;;;;5016481;28;20046;-66
2023/01/21 12:50:20;;;;;;;33.10;16.98;;;3.40;99.90;;;;;;5028617;28;20511;-66
2023/01/21 12:53:13;;;;;;;32.40;15.10;;;3.50;99.90;;;;;;5026746;28;20126;-66
2023/01/21 12:56:13;;;;;;;31.35;15.13;;;3.50;99.90;;;;;;5024495;28;20532;-66